sensor_id;sensor_type;location;lat;lon;timestamp;P1;durP1;ratioP1;P2;durP2;ratioP2
58063;SDS011;43851;55.856;37.186;2022-08-05T00:01:00;19.95;;;11.32;;
58063;SDS011;43851;55.856;37.186;2022-08-05T00:03:26;13.13;;;11.40;;
58063;SDS011;43851;55.856;37.186;2022-08-05T00:05:52;17.15;;;10.48;;
58063;SDS011;43851;55.856;37.186;2022-08-05T00:08:17;13.93;;;11.05;;
58063;SDS011;43851;55.856;37.186;2022-08-05T00:10:43;20.77;;;12.27;;
58063;SDS011;43851;55.856;37.186;2022-08-05T00:13:09;17.30;;;11.35;;
58063;SDS011;43851;55.856;37.186;2022-08-05T00:15:36;18.38;;;11.32;;
58063;SDS011;43851;55.856;37.186;2022-08-05T00:18:01;15.07;;;10.38;;
58063;SDS011;43851;55.856;37.186;2022-08-05T00:20:27;18.50;;;12.10;;
58063;SDS011;43851;55.856;37.186;2022-08-05T00:22:53;23.85;;;11.27;;
58063;SDS011;43851;55.856;37.186;2022-08-05T00:25:19;19.33;;;11.95;;
58063;SDS011;43851;55.856;37.186;2022-08-05T00:27:45;13.98;;;11.82;;
58063;SDS011;43851;55.856;37.186;2022-08-05T00:30:11;18.10;;;11.80;;
58063;SDS011;43851;55.856;37.186;2022-08-05T00:32:37;17.48;;;12.07;;
58063;SDS011;43851;55.856;37.186;2022-08-05T00:35:03;24.20;;;11.82;;
58063;SDS011;43851;55.856;37.186;2022-08-05T00:37:29;17.13;;;11.45;;
58063;SDS011;43851;55.856;37.186;2022-08-05T00:39:55;14.45;;;11.82;;
58063;SDS011;43851;55.856;37.186;2022-08-05T00:42:30;15.10;;;11.23;;
58063;SDS011;43851;55.856;37.186;2022-08-05T00:44:57;17.23;;;11.90;;
58063;SDS011;43851;55.856;37.186;2022-08-05T00:47:24;17.40;;;11.20;;
58063;SDS011;43851;55.856;37.186;2022-08-05T00:49:50;23.63;;;11.95;;
58063;SDS011;43851;55.856;37.186;2022-08-05T00:52:15;17.15;;;12.38;;
58063;SDS011;43851;55.856;37.186;2022-08-05T00:54:41;20.73;;;12.23;;
58063;SDS011;43851;55.856;37.186;2022-08-05T00:57:07;17.83;;;12.77;;
58063;SDS011;43851;55.856;37.186;2022-08-05T00:59:33;20.73;;;12.30;;
58063;SDS011;43851;55.856;37.186;2022-08-05T01:01:59;17.80;;;11.50;;
58063;SDS011;43851;55.856;37.186;2022-08-05T01:04:24;22.05;;;12.82;;
58063;SDS011;43851;55.856;37.186;2022-08-05T01:06:50;21.75;;;13.27;;
58063;SDS011;43851;55.856;37.186;2022-08-05T01:09:16;17.83;;;13.10;;
58063;SDS011;43851;55.856;37.186;2022-08-05T01:11:42;19.65;;;12.82;;
58063;SDS011;43851;55.856;37.186;2022-08-05T01:14:12;21.35;;;13.88;;
58063;SDS011;43851;55.856;37.186;2022-08-05T01:16:52;18.17;;;12.90;;
58063;SDS011;43851;55.856;37.186;2022-08-05T01:22:07;16.45;;;13.85;;
58063;SDS011;43851;55.856;37.186;2022-08-05T01:29:58;19.45;;;11.38;;
58063;SDS011;43851;55.856;37.186;2022-08-05T01:32:30;12.82;;;10.43;;
58063;SDS011;43851;55.856;37.186;2022-08-05T01:34:59;22.70;;;14.40;;
58063;SDS011;43851;55.856;37.186;2022-08-05T01:37:40;19.17;;;13.80;;
58063;SDS011;43851;55.856;37.186;2022-08-05T01:40:10;20.63;;;14.63;;
58063;SDS011;43851;55.856;37.186;2022-08-05T01:42:39;19.60;;;13.38;;
58063;SDS011;43851;55.856;37.186;2022-08-05T01:45:07;16.15;;;12.70;;
58063;SDS011;43851;55.856;37.186;2022-08-05T01:47:34;22.83;;;14.15;;
58063;SDS011;43851;55.856;37.186;2022-08-05T01:50:02;19.65;;;13.38;;
58063;SDS011;43851;55.856;37.186;2022-08-05T01:52:30;21.30;;;14.38;;
58063;SDS011;43851;55.856;37.186;2022-08-05T01:55:01;19.17;;;13.50;;
58063;SDS011;43851;55.856;37.186;2022-08-05T01:57:33;19.13;;;15.50;;
58063;SDS011;43851;55.856;37.186;2022-08-05T02:00:03;20.42;;;14.85;;
58063;SDS011;43851;55.856;37.186;2022-08-05T02:02:33;21.30;;;14.35;;
58063;SDS011;43851;55.856;37.186;2022-08-05T02:05:03;20.92;;;14.07;;
58063;SDS011;43851;55.856;37.186;2022-08-05T02:07:32;16.65;;;14.73;;
58063;SDS011;43851;55.856;37.186;2022-08-05T02:09:58;23.38;;;14.52;;
58063;SDS011;43851;55.856;37.186;2022-08-05T02:15:02;17.48;;;14.20;;
58063;SDS011;43851;55.856;37.186;2022-08-05T02:17:44;19.58;;;14.10;;
58063;SDS011;43851;55.856;37.186;2022-08-05T02:20:17;14.65;;;13.05;;
58063;SDS011;43851;55.856;37.186;2022-08-05T02:22:47;17.45;;;13.73;;
58063;SDS011;43851;55.856;37.186;2022-08-05T02:25:25;18.77;;;14.20;;
58063;SDS011;43851;55.856;37.186;2022-08-05T02:27:55;17.42;;;14.95;;
58063;SDS011;43851;55.856;37.186;2022-08-05T02:30:22;20.50;;;13.57;;
58063;SDS011;43851;55.856;37.186;2022-08-05T02:32:51;23.33;;;14.25;;
58063;SDS011;43851;55.856;37.186;2022-08-05T02:35:20;20.42;;;15.13;;
58063;SDS011;43851;55.856;37.186;2022-08-05T02:37:48;21.40;;;15.07;;
58063;SDS011;43851;55.856;37.186;2022-08-05T02:40:18;22.58;;;14.25;;
58063;SDS011;43851;55.856;37.186;2022-08-05T02:42:45;18.05;;;14.73;;
58063;SDS011;43851;55.856;37.186;2022-08-05T02:45:13;16.58;;;13.70;;
58063;SDS011;43851;55.856;37.186;2022-08-05T02:47:40;20.77;;;14.13;;
58063;SDS011;43851;55.856;37.186;2022-08-05T02:50:07;18.00;;;14.70;;
58063;SDS011;43851;55.856;37.186;2022-08-05T02:52:35;15.88;;;13.68;;
58063;SDS011;43851;55.856;37.186;2022-08-05T02:55:01;18.23;;;13.70;;
58063;SDS011;43851;55.856;37.186;2022-08-05T02:57:29;20.63;;;14.13;;
58063;SDS011;43851;55.856;37.186;2022-08-05T02:59:56;19.23;;;12.90;;
58063;SDS011;43851;55.856;37.186;2022-08-05T03:02:23;17.48;;;14.20;;
58063;SDS011;43851;55.856;37.186;2022-08-05T03:04:53;19.23;;;14.40;;
58063;SDS011;43851;55.856;37.186;2022-08-05T03:07:21;18.45;;;14.23;;
58063;SDS011;43851;55.856;37.186;2022-08-05T03:09:48;19.30;;;13.27;;
58063;SDS011;43851;55.856;37.186;2022-08-05T03:12:33;14.57;;;12.35;;
58063;SDS011;43851;55.856;37.186;2022-08-05T03:15:05;18.90;;;13.15;;
58063;SDS011;43851;55.856;37.186;2022-08-05T03:17:33;19.65;;;14.45;;
58063;SDS011;43851;55.856;37.186;2022-08-05T03:19:59;16.55;;;13.77;;
58063;SDS011;43851;55.856;37.186;2022-08-05T03:22:25;18.13;;;14.60;;
58063;SDS011;43851;55.856;37.186;2022-08-05T03:24:51;19.77;;;13.60;;
58063;SDS011;43851;55.856;37.186;2022-08-05T03:27:18;19.70;;;13.43;;
58063;SDS011;43851;55.856;37.186;2022-08-05T03:29:44;17.35;;;14.43;;
58063;SDS011;43851;55.856;37.186;2022-08-05T03:32:11;23.77;;;14.07;;
58063;SDS011;43851;55.856;37.186;2022-08-05T03:34:37;22.17;;;13.95;;
58063;SDS011;43851;55.856;37.186;2022-08-05T03:37:04;18.10;;;15.38;;
58063;SDS011;43851;55.856;37.186;2022-08-05T03:39:30;24.10;;;14.57;;
58063;SDS011;43851;55.856;37.186;2022-08-05T03:41:56;24.95;;;14.35;;
58063;SDS011;43851;55.856;37.186;2022-08-05T03:44:23;24.75;;;14.60;;
58063;SDS011;43851;55.856;37.186;2022-08-05T03:46:50;21.08;;;14.88;;
58063;SDS011;43851;55.856;37.186;2022-08-05T03:49:16;20.98;;;14.70;;
58063;SDS011;43851;55.856;37.186;2022-08-05T03:51:44;18.90;;;15.32;;
58063;SDS011;43851;55.856;37.186;2022-08-05T03:54:20;18.40;;;14.82;;
58063;SDS011;43851;55.856;37.186;2022-08-05T03:56:54;21.02;;;14.48;;
58063;SDS011;43851;55.856;37.186;2022-08-05T03:59:26;19.48;;;15.50;;
58063;SDS011;43851;55.856;37.186;2022-08-05T04:04:23;23.00;;;15.48;;
58063;SDS011;43851;55.856;37.186;2022-08-05T04:06:50;18.88;;;14.75;;
58063;SDS011;43851;55.856;37.186;2022-08-05T04:09:17;19.77;;;15.38;;
58063;SDS011;43851;55.856;37.186;2022-08-05T04:11:44;23.02;;;14.82;;
58063;SDS011;43851;55.856;37.186;2022-08-05T04:14:10;18.55;;;14.15;;
58063;SDS011;43851;55.856;37.186;2022-08-05T04:16:37;20.48;;;15.23;;
58063;SDS011;43851;55.856;37.186;2022-08-05T04:19:03;17.33;;;14.20;;
58063;SDS011;43851;55.856;37.186;2022-08-05T04:21:29;16.85;;;14.50;;
58063;SDS011;43851;55.856;37.186;2022-08-05T04:23:55;20.85;;;14.55;;
58063;SDS011;43851;55.856;37.186;2022-08-05T04:26:23;21.58;;;15.73;;
58063;SDS011;43851;55.856;37.186;2022-08-05T04:28:49;19.80;;;15.35;;
58063;SDS011;43851;55.856;37.186;2022-08-05T04:31:15;22.70;;;14.40;;
58063;SDS011;43851;55.856;37.186;2022-08-05T04:33:41;16.77;;;15.05;;
58063;SDS011;43851;55.856;37.186;2022-08-05T04:36:07;21.65;;;14.40;;
58063;SDS011;43851;55.856;37.186;2022-08-05T04:38:35;16.33;;;14.30;;
58063;SDS011;43851;55.856;37.186;2022-08-05T04:41:01;15.90;;;13.68;;
58063;SDS011;43851;55.856;37.186;2022-08-05T04:43:27;15.40;;;13.10;;
58063;SDS011;43851;55.856;37.186;2022-08-05T04:45:53;17.35;;;14.20;;
58063;SDS011;43851;55.856;37.186;2022-08-05T04:48:19;21.70;;;14.18;;
58063;SDS011;43851;55.856;37.186;2022-08-05T04:50:45;19.83;;;15.27;;
58063;SDS011;43851;55.856;37.186;2022-08-05T04:53:13;16.42;;;14.57;;
58063;SDS011;43851;55.856;37.186;2022-08-05T04:55:41;21.98;;;14.52;;
58063;SDS011;43851;55.856;37.186;2022-08-05T04:58:08;17.50;;;14.88;;
58063;SDS011;43851;55.856;37.186;2022-08-05T05:00:37;20.77;;;14.82;;
58063;SDS011;43851;55.856;37.186;2022-08-05T05:03:04;18.83;;;14.95;;
58063;SDS011;43851;55.856;37.186;2022-08-05T05:05:31;22.02;;;15.68;;
58063;SDS011;43851;55.856;37.186;2022-08-05T05:08:01;21.05;;;15.32;;
58063;SDS011;43851;55.856;37.186;2022-08-05T05:10:37;21.08;;;15.20;;
58063;SDS011;43851;55.856;37.186;2022-08-05T05:13:13;20.83;;;15.98;;
58063;SDS011;43851;55.856;37.186;2022-08-05T05:15:41;18.97;;;15.63;;
58063;SDS011;43851;55.856;37.186;2022-08-05T05:18:07;21.50;;;16.00;;
58063;SDS011;43851;55.856;37.186;2022-08-05T05:20:34;25.25;;;16.88;;
58063;SDS011;43851;55.856;37.186;2022-08-05T05:23:00;21.40;;;17.58;;
58063;SDS011;43851;55.856;37.186;2022-08-05T05:25:30;25.92;;;19.30;;
58063;SDS011;43851;55.856;37.186;2022-08-05T05:27:56;19.77;;;16.65;;
58063;SDS011;43851;55.856;37.186;2022-08-05T05:30:22;25.48;;;17.60;;
58063;SDS011;43851;55.856;37.186;2022-08-05T05:32:48;28.00;;;18.17;;
58063;SDS011;43851;55.856;37.186;2022-08-05T05:35:14;27.13;;;18.52;;
58063;SDS011;43851;55.856;37.186;2022-08-05T05:37:48;26.85;;;18.65;;
58063;SDS011;43851;55.856;37.186;2022-08-05T05:40:15;31.38;;;19.67;;
58063;SDS011;43851;55.856;37.186;2022-08-05T05:42:45;27.88;;;19.88;;
58063;SDS011;43851;55.856;37.186;2022-08-05T05:45:12;24.40;;;18.17;;
58063;SDS011;43851;55.856;37.186;2022-08-05T05:47:38;36.13;;;18.42;;
58063;SDS011;43851;55.856;37.186;2022-08-05T05:50:08;24.95;;;18.85;;
58063;SDS011;43851;55.856;37.186;2022-08-05T05:52:35;20.10;;;17.98;;
58063;SDS011;43851;55.856;37.186;2022-08-05T05:55:02;25.27;;;18.05;;
58063;SDS011;43851;55.856;37.186;2022-08-05T05:57:30;22.85;;;18.58;;
58063;SDS011;43851;55.856;37.186;2022-08-05T05:59:56;24.92;;;18.65;;
58063;SDS011;43851;55.856;37.186;2022-08-05T06:02:22;22.00;;;19.30;;
58063;SDS011;43851;55.856;37.186;2022-08-05T06:04:47;24.08;;;18.05;;
58063;SDS011;43851;55.856;37.186;2022-08-05T06:07:13;27.80;;;20.17;;
58063;SDS011;43851;55.856;37.186;2022-08-05T06:09:40;24.23;;;19.25;;
58063;SDS011;43851;55.856;37.186;2022-08-05T06:12:06;26.58;;;21.55;;
58063;SDS011;43851;55.856;37.186;2022-08-05T06:14:32;26.20;;;21.25;;
58063;SDS011;43851;55.856;37.186;2022-08-05T06:16:58;23.30;;;19.48;;
58063;SDS011;43851;55.856;37.186;2022-08-05T06:19:25;27.80;;;19.92;;
58063;SDS011;43851;55.856;37.186;2022-08-05T06:21:51;27.95;;;19.52;;
58063;SDS011;43851;55.856;37.186;2022-08-05T06:24:17;27.77;;;19.20;;
58063;SDS011;43851;55.856;37.186;2022-08-05T06:26:43;30.88;;;19.85;;
58063;SDS011;43851;55.856;37.186;2022-08-05T06:29:09;24.73;;;20.23;;
58063;SDS011;43851;55.856;37.186;2022-08-05T06:31:35;27.02;;;21.40;;
58063;SDS011;43851;55.856;37.186;2022-08-05T06:34:02;29.25;;;22.85;;
58063;SDS011;43851;55.856;37.186;2022-08-05T06:36:29;26.48;;;18.83;;
58063;SDS011;43851;55.856;37.186;2022-08-05T06:38:55;27.95;;;19.98;;
58063;SDS011;43851;55.856;37.186;2022-08-05T06:41:21;28.02;;;21.95;;
58063;SDS011;43851;55.856;37.186;2022-08-05T06:43:48;31.42;;;20.25;;
58063;SDS011;43851;55.856;37.186;2022-08-05T06:46:14;30.20;;;20.75;;
58063;SDS011;43851;55.856;37.186;2022-08-05T06:48:40;25.35;;;21.80;;
58063;SDS011;43851;55.856;37.186;2022-08-05T06:51:06;29.00;;;20.10;;
58063;SDS011;43851;55.856;37.186;2022-08-05T06:53:32;26.40;;;20.77;;
58063;SDS011;43851;55.856;37.186;2022-08-05T06:56:00;28.85;;;21.55;;
58063;SDS011;43851;55.856;37.186;2022-08-05T06:58:28;24.50;;;19.65;;
58063;SDS011;43851;55.856;37.186;2022-08-05T07:00:54;24.67;;;21.60;;
58063;SDS011;43851;55.856;37.186;2022-08-05T07:03:22;27.48;;;20.70;;
58063;SDS011;43851;55.856;37.186;2022-08-05T07:05:48;24.85;;;20.08;;
58063;SDS011;43851;55.856;37.186;2022-08-05T07:08:13;31.95;;;19.83;;
58063;SDS011;43851;55.856;37.186;2022-08-05T07:10:39;24.50;;;18.58;;
58063;SDS011;43851;55.856;37.186;2022-08-05T07:13:05;25.55;;;19.08;;
58063;SDS011;43851;55.856;37.186;2022-08-05T07:15:49;26.55;;;19.08;;
58063;SDS011;43851;55.856;37.186;2022-08-05T07:18:34;25.13;;;18.13;;
58063;SDS011;43851;55.856;37.186;2022-08-05T07:20:59;25.23;;;18.42;;
58063;SDS011;43851;55.856;37.186;2022-08-05T07:23:25;28.83;;;17.15;;
58063;SDS011;43851;55.856;37.186;2022-08-05T07:25:51;22.83;;;15.82;;
58063;SDS011;43851;55.856;37.186;2022-08-05T07:28:17;23.60;;;16.70;;
58063;SDS011;43851;55.856;37.186;2022-08-05T07:30:43;24.98;;;16.23;;
58063;SDS011;43851;55.856;37.186;2022-08-05T07:33:10;26.45;;;16.08;;
58063;SDS011;43851;55.856;37.186;2022-08-05T07:35:37;21.35;;;15.80;;
58063;SDS011;43851;55.856;37.186;2022-08-05T07:38:04;18.65;;;15.77;;
58063;SDS011;43851;55.856;37.186;2022-08-05T07:40:30;18.27;;;14.65;;
58063;SDS011;43851;55.856;37.186;2022-08-05T07:42:56;21.15;;;13.05;;
58063;SDS011;43851;55.856;37.186;2022-08-05T07:45:22;18.88;;;12.10;;
58063;SDS011;43851;55.856;37.186;2022-08-05T07:47:49;14.93;;;8.63;;
58063;SDS011;43851;55.856;37.186;2022-08-05T07:50:18;11.43;;;7.45;;
58063;SDS011;43851;55.856;37.186;2022-08-05T07:52:45;11.18;;;7.07;;
58063;SDS011;43851;55.856;37.186;2022-08-05T07:55:11;7.05;;;6.18;;
58063;SDS011;43851;55.856;37.186;2022-08-05T07:57:37;11.32;;;6.68;;
58063;SDS011;43851;55.856;37.186;2022-08-05T08:00:05;8.50;;;6.53;;
58063;SDS011;43851;55.856;37.186;2022-08-05T08:02:37;10.27;;;6.70;;
58063;SDS011;43851;55.856;37.186;2022-08-05T08:05:03;9.43;;;6.35;;
58063;SDS011;43851;55.856;37.186;2022-08-05T08:07:30;7.43;;;6.40;;
58063;SDS011;43851;55.856;37.186;2022-08-05T08:09:56;13.20;;;6.57;;
58063;SDS011;43851;55.856;37.186;2022-08-05T08:12:23;12.15;;;6.80;;
58063;SDS011;43851;55.856;37.186;2022-08-05T08:14:49;8.68;;;6.57;;
58063;SDS011;43851;55.856;37.186;2022-08-05T08:17:17;9.02;;;6.50;;
58063;SDS011;43851;55.856;37.186;2022-08-05T08:19:43;9.82;;;6.47;;
58063;SDS011;43851;55.856;37.186;2022-08-05T08:22:10;12.10;;;6.70;;
58063;SDS011;43851;55.856;37.186;2022-08-05T08:24:37;14.60;;;6.35;;
58063;SDS011;43851;55.856;37.186;2022-08-05T08:27:04;9.60;;;6.72;;
58063;SDS011;43851;55.856;37.186;2022-08-05T08:29:31;10.05;;;6.03;;
58063;SDS011;43851;55.856;37.186;2022-08-05T08:31:57;11.70;;;6.43;;
58063;SDS011;43851;55.856;37.186;2022-08-05T08:34:23;11.60;;;6.68;;
58063;SDS011;43851;55.856;37.186;2022-08-05T08:36:50;14.50;;;7.10;;
58063;SDS011;43851;55.856;37.186;2022-08-05T08:39:16;18.05;;;6.72;;
58063;SDS011;43851;55.856;37.186;2022-08-05T08:41:43;14.27;;;6.50;;
58063;SDS011;43851;55.856;37.186;2022-08-05T08:44:16;13.45;;;6.80;;
58063;SDS011;43851;55.856;37.186;2022-08-05T08:46:44;11.77;;;5.88;;
58063;SDS011;43851;55.856;37.186;2022-08-05T08:49:12;10.55;;;6.65;;
58063;SDS011;43851;55.856;37.186;2022-08-05T08:51:42;9.85;;;5.63;;
58063;SDS011;43851;55.856;37.186;2022-08-05T08:54:13;9.30;;;6.57;;
58063;SDS011;43851;55.856;37.186;2022-08-05T08:56:39;9.38;;;6.05;;
58063;SDS011;43851;55.856;37.186;2022-08-05T08:59:05;7.45;;;6.25;;
58063;SDS011;43851;55.856;37.186;2022-08-05T09:01:31;11.88;;;6.95;;
58063;SDS011;43851;55.856;37.186;2022-08-05T09:03:58;10.15;;;6.70;;
58063;SDS011;43851;55.856;37.186;2022-08-05T09:06:25;10.73;;;6.93;;
58063;SDS011;43851;55.856;37.186;2022-08-05T09:08:53;11.15;;;7.55;;
58063;SDS011;43851;55.856;37.186;2022-08-05T09:11:19;10.90;;;7.05;;
58063;SDS011;43851;55.856;37.186;2022-08-05T09:13:45;16.02;;;8.77;;
58063;SDS011;43851;55.856;37.186;2022-08-05T09:16:12;12.07;;;6.38;;
58063;SDS011;43851;55.856;37.186;2022-08-05T09:18:38;11.45;;;6.60;;
58063;SDS011;43851;55.856;37.186;2022-08-05T09:21:05;13.05;;;6.97;;
58063;SDS011;43851;55.856;37.186;2022-08-05T09:23:31;11.13;;;7.20;;
58063;SDS011;43851;55.856;37.186;2022-08-05T09:26:07;15.60;;;6.70;;
58063;SDS011;43851;55.856;37.186;2022-08-05T09:28:35;8.35;;;6.43;;
58063;SDS011;43851;55.856;37.186;2022-08-05T09:31:04;10.43;;;7.13;;
58063;SDS011;43851;55.856;37.186;2022-08-05T09:33:51;9.40;;;6.40;;
58063;SDS011;43851;55.856;37.186;2022-08-05T09:36:21;9.60;;;7.50;;
58063;SDS011;43851;55.856;37.186;2022-08-05T09:39:09;12.02;;;7.57;;
58063;SDS011;43851;55.856;37.186;2022-08-05T09:44:36;10.00;;;7.25;;
58063;SDS011;43851;55.856;37.186;2022-08-05T09:47:08;13.82;;;6.93;;
58063;SDS011;43851;55.856;37.186;2022-08-05T09:49:52;18.55;;;7.18;;
58063;SDS011;43851;55.856;37.186;2022-08-05T09:54:55;13.55;;;6.45;;
58063;SDS011;43851;55.856;37.186;2022-08-05T09:57:31;11.27;;;6.72;;
58063;SDS011;43851;55.856;37.186;2022-08-05T09:59:58;9.57;;;6.80;;
58063;SDS011;43851;55.856;37.186;2022-08-05T10:02:33;8.93;;;6.20;;
58063;SDS011;43851;55.856;37.186;2022-08-05T10:05:04;11.65;;;6.70;;
58063;SDS011;43851;55.856;37.186;2022-08-05T10:13:10;15.98;;;7.22;;
58063;SDS011;43851;55.856;37.186;2022-08-05T10:15:50;18.38;;;7.32;;
58063;SDS011;43851;55.856;37.186;2022-08-05T10:18:17;9.48;;;6.75;;
58063;SDS011;43851;55.856;37.186;2022-08-05T10:23:25;8.52;;;5.82;;
58063;SDS011;43851;55.856;37.186;2022-08-05T10:25:54;13.48;;;6.68;;
58063;SDS011;43851;55.856;37.186;2022-08-05T10:28:20;11.68;;;6.40;;
58063;SDS011;43851;55.856;37.186;2022-08-05T10:30:46;8.13;;;6.07;;
58063;SDS011;43851;55.856;37.186;2022-08-05T10:33:13;8.45;;;6.28;;
58063;SDS011;43851;55.856;37.186;2022-08-05T10:35:39;10.98;;;7.03;;
58063;SDS011;43851;55.856;37.186;2022-08-05T10:38:05;13.18;;;6.28;;
58063;SDS011;43851;55.856;37.186;2022-08-05T10:40:40;10.23;;;7.20;;
58063;SDS011;43851;55.856;37.186;2022-08-05T10:46:01;9.48;;;7.03;;
58063;SDS011;43851;55.856;37.186;2022-08-05T10:48:33;8.55;;;7.10;;
58063;SDS011;43851;55.856;37.186;2022-08-05T10:51:03;8.93;;;6.28;;
58063;SDS011;43851;55.856;37.186;2022-08-05T10:56:22;12.50;;;6.85;;
58063;SDS011;43851;55.856;37.186;2022-08-05T11:01:32;8.38;;;6.32;;
58063;SDS011;43851;55.856;37.186;2022-08-05T11:09:27;7.82;;;6.63;;
58063;SDS011;43851;55.856;37.186;2022-08-05T11:12:03;10.73;;;7.15;;
58063;SDS011;43851;55.856;37.186;2022-08-05T11:14:30;8.55;;;6.47;;
58063;SDS011;43851;55.856;37.186;2022-08-05T11:19:52;9.95;;;6.40;;
58063;SDS011;43851;55.856;37.186;2022-08-05T11:25:29;12.75;;;11.00;;
58063;SDS011;43851;55.856;37.186;2022-08-05T11:35:58;8.40;;;6.72;;
58063;SDS011;43851;55.856;37.186;2022-08-05T11:41:15;8.65;;;6.63;;
58063;SDS011;43851;55.856;37.186;2022-08-05T11:43:51;12.40;;;7.10;;
58063;SDS011;43851;55.856;37.186;2022-08-05T11:46:26;10.90;;;6.75;;
58063;SDS011;43851;55.856;37.186;2022-08-05T11:48:56;9.57;;;6.50;;
58063;SDS011;43851;55.856;37.186;2022-08-05T11:51:23;11.48;;;6.88;;
58063;SDS011;43851;55.856;37.186;2022-08-05T11:53:51;12.50;;;7.30;;
58063;SDS011;43851;55.856;37.186;2022-08-05T11:56:18;11.43;;;7.68;;
58063;SDS011;43851;55.856;37.186;2022-08-05T11:58:44;9.90;;;7.15;;
58063;SDS011;43851;55.856;37.186;2022-08-05T12:01:13;8.55;;;6.90;;
58063;SDS011;43851;55.856;37.186;2022-08-05T12:03:51;10.50;;;7.15;;
58063;SDS011;43851;55.856;37.186;2022-08-05T12:06:20;8.18;;;6.78;;
58063;SDS011;43851;55.856;37.186;2022-08-05T12:08:48;9.73;;;6.78;;
58063;SDS011;43851;55.856;37.186;2022-08-05T12:11:17;16.27;;;7.82;;
58063;SDS011;43851;55.856;37.186;2022-08-05T12:14:00;11.63;;;7.38;;
58063;SDS011;43851;55.856;37.186;2022-08-05T12:16:33;9.18;;;6.68;;
58063;SDS011;43851;55.856;37.186;2022-08-05T12:19:00;8.63;;;6.95;;
58063;SDS011;43851;55.856;37.186;2022-08-05T12:21:28;7.72;;;6.97;;
58063;SDS011;43851;55.856;37.186;2022-08-05T12:24:16;15.15;;;7.47;;
58063;SDS011;43851;55.856;37.186;2022-08-05T12:26:45;9.10;;;7.88;;
58063;SDS011;43851;55.856;37.186;2022-08-05T12:29:13;11.65;;;7.30;;
58063;SDS011;43851;55.856;37.186;2022-08-05T12:31:43;8.57;;;7.25;;
58063;SDS011;43851;55.856;37.186;2022-08-05T12:34:12;14.80;;;9.38;;
58063;SDS011;43851;55.856;37.186;2022-08-05T12:36:39;12.73;;;8.18;;
58063;SDS011;43851;55.856;37.186;2022-08-05T12:39:05;12.50;;;8.27;;
58063;SDS011;43851;55.856;37.186;2022-08-05T12:41:32;13.30;;;7.35;;
58063;SDS011;43851;55.856;37.186;2022-08-05T12:44:07;9.52;;;7.88;;
58063;SDS011;43851;55.856;37.186;2022-08-05T12:46:35;10.43;;;8.75;;
58063;SDS011;43851;55.856;37.186;2022-08-05T12:49:07;13.90;;;8.65;;
58063;SDS011;43851;55.856;37.186;2022-08-05T12:56:47;12.85;;;8.23;;
58063;SDS011;43851;55.856;37.186;2022-08-05T13:02:09;9.05;;;7.40;;
58063;SDS011;43851;55.856;37.186;2022-08-05T13:04:37;12.88;;;6.97;;
58063;SDS011;43851;55.856;37.186;2022-08-05T13:07:06;9.02;;;7.28;;
58063;SDS011;43851;55.856;37.186;2022-08-05T13:09:37;13.38;;;7.32;;
58063;SDS011;43851;55.856;37.186;2022-08-05T13:12:05;11.73;;;7.97;;
58063;SDS011;43851;55.856;37.186;2022-08-05T13:14:40;10.60;;;7.30;;
58063;SDS011;43851;55.856;37.186;2022-08-05T13:24:57;10.40;;;7.15;;
58063;SDS011;43851;55.856;37.186;2022-08-05T13:27:25;10.25;;;8.27;;
58063;SDS011;43851;55.856;37.186;2022-08-05T13:29:52;10.70;;;7.25;;
58063;SDS011;43851;55.856;37.186;2022-08-05T13:32:18;8.77;;;7.25;;
58063;SDS011;43851;55.856;37.186;2022-08-05T13:34:45;7.80;;;7.00;;
58063;SDS011;43851;55.856;37.186;2022-08-05T13:37:13;16.45;;;7.45;;
58063;SDS011;43851;55.856;37.186;2022-08-05T13:39:39;14.90;;;6.75;;
58063;SDS011;43851;55.856;37.186;2022-08-05T13:42:05;9.82;;;7.35;;
58063;SDS011;43851;55.856;37.186;2022-08-05T13:44:31;8.50;;;7.30;;
58063;SDS011;43851;55.856;37.186;2022-08-05T13:46:57;9.07;;;7.68;;
58063;SDS011;43851;55.856;37.186;2022-08-05T13:49:23;8.20;;;7.35;;
58063;SDS011;43851;55.856;37.186;2022-08-05T13:51:48;8.27;;;6.82;;
58063;SDS011;43851;55.856;37.186;2022-08-05T13:54:15;8.43;;;7.35;;
58063;SDS011;43851;55.856;37.186;2022-08-05T13:56:42;10.88;;;7.00;;
58063;SDS011;43851;55.856;37.186;2022-08-05T13:59:08;8.07;;;6.95;;
58063;SDS011;43851;55.856;37.186;2022-08-05T14:01:34;7.18;;;6.47;;
58063;SDS011;43851;55.856;37.186;2022-08-05T14:04:00;9.05;;;6.90;;
58063;SDS011;43851;55.856;37.186;2022-08-05T14:06:44;8.85;;;6.50;;
58063;SDS011;43851;55.856;37.186;2022-08-05T14:09:10;10.68;;;6.68;;
58063;SDS011;43851;55.856;37.186;2022-08-05T14:11:36;10.80;;;7.18;;
58063;SDS011;43851;55.856;37.186;2022-08-05T14:14:05;11.20;;;6.80;;
58063;SDS011;43851;55.856;37.186;2022-08-05T14:16:32;8.55;;;6.95;;
58063;SDS011;43851;55.856;37.186;2022-08-05T14:18:59;9.50;;;7.32;;
58063;SDS011;43851;55.856;37.186;2022-08-05T14:21:25;8.90;;;7.10;;
58063;SDS011;43851;55.856;37.186;2022-08-05T14:23:51;7.60;;;6.75;;
58063;SDS011;43851;55.856;37.186;2022-08-05T14:26:17;9.60;;;7.30;;
58063;SDS011;43851;55.856;37.186;2022-08-05T14:28:43;11.27;;;7.55;;
58063;SDS011;43851;55.856;37.186;2022-08-05T14:31:12;14.90;;;7.63;;
58063;SDS011;43851;55.856;37.186;2022-08-05T14:33:38;12.70;;;6.90;;
58063;SDS011;43851;55.856;37.186;2022-08-05T14:36:04;10.48;;;7.72;;
58063;SDS011;43851;55.856;37.186;2022-08-05T14:38:30;14.60;;;7.10;;
58063;SDS011;43851;55.856;37.186;2022-08-05T14:40:56;8.48;;;7.50;;
58063;SDS011;43851;55.856;37.186;2022-08-05T14:43:26;8.95;;;7.30;;
58063;SDS011;43851;55.856;37.186;2022-08-05T14:45:51;8.52;;;7.53;;
58063;SDS011;43851;55.856;37.186;2022-08-05T14:48:18;14.25;;;8.10;;
58063;SDS011;43851;55.856;37.186;2022-08-05T14:50:44;14.55;;;7.30;;
58063;SDS011;43851;55.856;37.186;2022-08-05T14:53:10;10.75;;;7.22;;
58063;SDS011;43851;55.856;37.186;2022-08-05T14:55:36;13.15;;;8.07;;
58063;SDS011;43851;55.856;37.186;2022-08-05T14:58:02;9.63;;;7.10;;
58063;SDS011;43851;55.856;37.186;2022-08-05T15:00:28;8.20;;;7.40;;
58063;SDS011;43851;55.856;37.186;2022-08-05T15:02:54;13.10;;;7.45;;
58063;SDS011;43851;55.856;37.186;2022-08-05T15:05:20;14.73;;;7.80;;
58063;SDS011;43851;55.856;37.186;2022-08-05T15:07:46;10.10;;;7.55;;
58063;SDS011;43851;55.856;37.186;2022-08-05T15:10:12;10.93;;;7.80;;
58063;SDS011;43851;55.856;37.186;2022-08-05T15:12:37;13.68;;;7.93;;
58063;SDS011;43851;55.856;37.186;2022-08-05T15:15:03;10.60;;;7.35;;
58063;SDS011;43851;55.856;37.186;2022-08-05T15:17:30;9.77;;;7.28;;
58063;SDS011;43851;55.856;37.186;2022-08-05T15:19:55;10.27;;;7.50;;
58063;SDS011;43851;55.856;37.186;2022-08-05T15:22:21;9.18;;;7.72;;
58063;SDS011;43851;55.856;37.186;2022-08-05T15:24:47;13.57;;;7.35;;
58063;SDS011;43851;55.856;37.186;2022-08-05T15:27:13;13.32;;;7.80;;
58063;SDS011;43851;55.856;37.186;2022-08-05T15:29:38;11.57;;;7.88;;
58063;SDS011;43851;55.856;37.186;2022-08-05T15:32:04;11.48;;;7.30;;
58063;SDS011;43851;55.856;37.186;2022-08-05T15:34:30;13.88;;;7.25;;